Time,TemperatureF,DewpointF,PressureIn,WindDirection,WindDirectionDegrees,WindSpeedMPH,WindSpeedGustMPH,Humidity,HourlyPrecipIn,Conditions,Clouds,dailyrainin,SolarRadiationWatts/m^2,SoftwareType,DateUTC
2013-01-02 00:00:00,43.4,38.9,30.17,NNE,25,3.0,3.0,84,0.00,,,0.08,0,Wunderground v.1.15,2013-01-02 06:00:00,
2013-01-02 00:05:00,43.4,38.9,30.17,NNE,25,3.0,9.0,84,0.00,,,0.00,0,Wunderground v.1.15,2013-01-02 06:05:00,
2013-01-02 00:10:00,43.3,38.8,30.17,NNE,26,3.0,3.0,84,0.00,,,0.00,0,Wunderground v.1.15,2013-01-02 06:10:00,
2013-01-02 00:15:00,43.3,38.8,30.18,NNE,19,4.0,4.0,84,0.00,,,0.00,0,Wunderground v.1.15,2013-01-02 06:15:00,
2013-01-02 00:25:00,43.2,38.7,30.18,NNE,30,3.0,6.0,84,0.00,,,0.00,0,Wunderground v.1.15,2013-01-02 06:25:00,
2013-01-02 00:30:00,43.1,38.6,30.18,NNE,30,2.0,2.0,84,0.00,,,0.00,0,Wunderground v.1.15,2013-01-02 06:30:00,
2013-01-02 00:35:00,43.1,38.6,30.18,NNE,21,3.0,3.0,84,0.00,,,0.00,0,Wunderground v.1.15,2013-01-02 06:35:00,
2013-01-02 00:45:00,42.8,38.0,30.17,North,10,5.0,7.0,83,0.00,,,0.00,0,Wunderground v.1.15,2013-01-02 06:45:00,
2013-01-02 00:50:00,42.7,37.9,30.17,NNE,24,4.0,4.0,83,0.00,,,0.00,0,Wunderground v.1.15,2013-01-02 06:50:00,
2013-01-02 00:55:00,42.6,37.8,30.17,NNE,22,5.0,7.0,83,0.00,,,0.00,0,Wunderground v.1.15,2013-01-02 06:55:00,
2013-01-02 01:00:00,42.5,37.4,30.17,NNE,18,5.0,5.0,82,0.00,,,0.00,0,Wunderground v.1.15,2013-01-02 07:00:00,
2013-01-02 01:10:00,42.3,36.9,30.17,NE,38,6.0,8.0,81,0.00,,,0.00,0,Wunderground v.1.15,2013-01-02 07:10:00,
2013-01-02 01:15:00,42.3,36.9,30.17,NE,40,5.0,8.0,81,0.00,,,0.00,0,Wunderground v.1.15,2013-01-02 07:15:00,
2013-01-02 01:20:00,42.2,36.8,30.17,North,11,5.0,5.0,81,0.00,,,0.00,0,Wunderground v.1.15,2013-01-02 07:20:00,
2013-01-02 01:25:00,42.2,36.8,30.17,NE,38,6.0,6.0,81,0.00,,,0.00,0,Wunderground v.1.15,2013-01-02 07:25:00,
2013-01-02 01:30:00,42.1,36.7,30.17,NE,34,5.0,7.0,81,0.00,,,0.00,0,Wunderground v.1.15,2013-01-02 07:30:00,
2013-01-02 01:35:00,42.0,36.6,30.17,North,11,6.0,7.0,81,0.00,,,0.00,0,Wunderground v.1.15,2013-01-02 07:35:00,
2013-01-02 01:40:00,41.9,36.2,30.17,NNE,19,6.0,6.0,80,0.00,,,0.00,0,Wunderground v.1.15,2013-01-02 07:40:00,
2013-01-02 01:50:00,41.8,36.1,30.18,NNE,23,5.0,5.0,80,0.00,,,0.00,0,Wunderground v.1.15,2013-01-02 07:50:00,
2013-01-02 01:55:00,41.7,36.0,30.18,NNE,27,5.0,5.0,80,0.00,,,0.00,0,Wunderground v.1.15,2013-01-02 07:55:00,
2013-01-02 02:05:00,41.6,35.9,30.18,NE,35,3.0,5.0,80,0.00,,,0.00,0,Wunderground v.1.15,2013-01-02 08:05:00,
2013-01-02 02:15:00,41.5,35.5,30.19,North,5,5.0,6.0,79,0.00,,,0.00,0,Wunderground v.1.15,2013-01-02 08:15:00,
2013-01-02 02:25:00,41.4,35.4,30.19,NNE,22,4.0,4.0,79,0.00,,,0.00,0,Wunderground v.1.15,2013-01-02 08:25:00,
2013-01-02 02:30:00,41.3,35.0,30.20,North,360,5.0,5.0,78,0.00,,,0.00,0,Wunderground v.1.15,2013-01-02 08:30:00,
2013-01-02 02:40:00,41.1,34.4,30.20,North,11,6.0,6.0,77,0.00,,,0.00,0,Wunderground v.1.15,2013-01-02 08:40:00,
2013-01-02 02:50:00,41.0,34.3,30.20,NNE,13,4.0,4.0,77,0.00,,,0.00,0,Wunderground v.1.15,2013-01-02 08:50:00,
2013-01-02 02:55:00,40.9,34.2,30.20,NNE,26,4.0,6.0,77,0.00,,,0.00,0,Wunderground v.1.15,2013-01-02 08:55:00,
2013-01-02 03:00:00,40.8,34.1,30.20,NNE,25,4.0,8.0,77,0.00,,,0.00,0,Wunderground v.1.15,2013-01-02 09:00:00,
2013-01-02 03:05:00,40.7,34.0,30.20,NNE,30,5.0,8.0,77,0.00,,,0.00,0,Wunderground v.1.15,2013-01-02 09:05:00,
2013-01-02 03:10:00,40.6,34.0,30.20,NNE,18,6.0,6.0,77,0.00,,,0.00,0,Wunderground v.1.15,2013-01-02 09:10:00,
2013-01-02 03:20:00,40.4,33.8,30.19,NNE,14,4.0,5.0,77,0.00,,,0.00,0,Wunderground v.1.15,2013-01-02 09:20:00,
2013-01-02 03:25:00,40.4,33.8,30.19,North,360,5.0,8.0,77,0.00,,,0.00,0,Wunderground v.1.15,2013-01-02 09:25:00,
2013-01-02 03:30:00,40.3,33.7,30.20,NNE,15,5.0,5.0,77,0.00,,,0.00,0,Wunderground v.1.15,2013-01-02 09:30:00,
2013-01-02 03:35:00,40.3,33.7,30.20,NNE,22,4.0,5.0,77,0.00,,,0.00,0,Wunderground v.1.15,2013-01-02 09:35:00,
2013-01-02 03:40:00,40.2,33.6,30.20,NE,34,4.0,6.0,77,0.00,,,0.00,0,Wunderground v.1.15,2013-01-02 09:40:00,
2013-01-02 03:45:00,40.1,33.5,30.19,NNE,16,4.0,6.0,77,0.00,,,0.00,0,Wunderground v.1.15,2013-01-02 09:45:00,
2013-01-02 03:50:00,40.1,33.5,30.19,North,9,5.0,9.0,77,0.00,,,0.00,0,Wunderground v.1.15,2013-01-02 09:50:00,
2013-01-02 03:55:00,39.9,32.9,30.19,NNE,15,5.0,9.0,76,0.00,,,0.00,0,Wunderground v.1.15,2013-01-02 09:55:00,
2013-01-02 04:00:00,39.9,32.9,30.20,North,360,5.0,5.0,76,0.00,,,0.00,0,Wunderground v.1.15,2013-01-02 10:00:00,
2013-01-02 04:05:00,39.8,32.8,30.20,NNE,24,5.0,5.0,76,0.00,,,0.00,0,Wunderground v.1.15,2013-01-02 10:05:00,
2013-01-02 04:10:00,39.7,32.8,30.20,NNE,12,5.0,5.0,76,0.00,,,0.00,0,Wunderground v.1.15,2013-01-02 10:10:00,
2013-01-02 04:15:00,39.7,32.8,30.19,NE,34,5.0,5.0,76,0.00,,,0.00,0,Wunderground v.1.15,2013-01-02 10:15:00,
2013-01-02 04:20:00,39.6,32.7,30.19,North,11,6.0,6.0,76,0.00,,,0.00,0,Wunderground v.1.15,2013-01-02 10:20:00,
2013-01-02 04:30:00,39.6,33.0,30.20,NNE,25,5.0,11.0,77,0.00,,,0.00,0,Wunderground v.1.15,2013-01-02 10:30:00,
2013-01-02 04:35:00,39.5,32.9,30.20,NE,35,4.0,11.0,77,0.00,,,0.00,0,Wunderground v.1.15,2013-01-02 10:35:00,
2013-01-02 04:40:00,39.5,32.9,30.20,NNE,16,4.0,9.0,77,0.00,,,0.00,0,Wunderground v.1.15,2013-01-02 10:40:00,
2013-01-02 04:45:00,39.4,32.8,30.20,NNE,30,5.0,9.0,77,0.00,,,0.00,0,Wunderground v.1.15,2013-01-02 10:45:00,
2013-01-02 04:55:00,39.3,32.4,30.20,NNE,15,4.0,14.0,76,0.00,,,0.00,0,Wunderground v.1.15,2013-01-02 10:55:00,
2013-01-02 05:00:00,39.3,32.4,30.20,North,360,5.0,10.0,76,0.00,,,0.00,0,Wunderground v.1.15,2013-01-02 11:00:00,
2013-01-02 05:05:00,39.2,32.3,30.20,NNW,339,6.0,10.0,76,0.00,,,0.00,0,Wunderground v.1.15,2013-01-02 11:05:00,
2013-01-02 05:10:00,39.2,32.3,30.20,NNE,15,6.0,6.0,76,0.00,,,0.00,0,Wunderground v.1.15,2013-01-02 11:10:00,
2013-01-02 05:15:00,39.2,32.3,30.20,North,11,5.0,6.0,76,0.00,,,0.00,0,Wunderground v.1.15,2013-01-02 11:15:00,
2013-01-02 05:25:00,39.1,31.8,30.20,NNE,15,6.0,6.0,75,0.00,,,0.00,0,Wunderground v.1.15,2013-01-02 11:25:00,
2013-01-02 05:30:00,39.1,31.8,30.19,NNW,339,6.0,6.0,75,0.00,,,0.00,0,Wunderground v.1.15,2013-01-02 11:30:00,
2013-01-02 05:35:00,39.0,31.7,30.19,NNE,13,7.0,7.0,75,0.00,,,0.00,0,Wunderground v.1.15,2013-01-02 11:35:00,
2013-01-02 05:40:00,39.0,31.7,30.19,NNE,15,6.0,10.0,75,0.00,,,0.00,0,Wunderground v.1.15,2013-01-02 11:40:00,
2013-01-02 05:45:00,39.0,31.7,30.20,NNE,12,6.0,10.0,75,0.00,,,0.00,0,Wunderground v.1.15,2013-01-02 11:45:00,
2013-01-02 05:50:00,38.9,31.6,30.20,North,9,6.0,12.0,75,0.00,,,0.00,0,Wunderground v.1.15,2013-01-02 11:50:00,
2013-01-02 05:55:00,38.9,31.6,30.20,NNE,14,6.0,12.0,75,0.00,,,0.00,0,Wunderground v.1.15,2013-01-02 11:55:00,
2013-01-02 06:05:00,38.9,31.6,30.20,NNE,17,4.0,6.0,75,0.00,,,0.00,0,Wunderground v.1.15,2013-01-02 12:05:00,
2013-01-02 06:10:00,38.9,31.6,30.20,North,360,4.0,4.0,75,0.00,,,0.00,0,Wunderground v.1.15,2013-01-02 12:10:00,
2013-01-02 06:15:00,38.8,31.2,30.20,North,11,6.0,6.0,74,0.00,,,0.00,0,Wunderground v.1.15,2013-01-02 12:15:00,
2013-01-02 06:20:00,38.8,31.2,30.20,North,360,6.0,6.0,74,0.00,,,0.00,0,Wunderground v.1.15,2013-01-02 12:20:00,
2013-01-02 06:25:00,38.7,31.1,30.20,NNW,340,6.0,6.0,74,0.00,,,0.00,0,Wunderground v.1.15,2013-01-02 12:25:00,
2013-01-02 06:30:00,38.7,31.1,30.20,North,9,6.0,6.0,74,0.00,,,0.00,0,Wunderground v.1.15,2013-01-02 12:30:00,
2013-01-02 06:35:00,38.7,30.8,30.20,NW,326,6.0,6.0,73,0.00,,,0.00,0,Wunderground v.1.15,2013-01-02 12:35:00,
2013-01-02 06:40:00,38.6,30.7,30.20,NE,36,4.0,5.0,73,0.00,,,0.00,0,Wunderground v.1.15,2013-01-02 12:40:00,
2013-01-02 06:45:00,38.6,30.7,30.22,NNE,22,4.0,5.0,73,0.00,,,0.00,0,Wunderground v.1.15,2013-01-02 12:45:00,
2013-01-02 06:50:00,38.6,30.7,30.22,NNE,14,5.0,6.0,73,0.00,,,0.00,0,Wunderground v.1.15,2013-01-02 12:50:00,
2013-01-02 06:55:00,38.6,30.4,30.22,NNE,13,5.0,11.0,72,0.00,,,0.00,0,Wunderground v.1.15,2013-01-02 12:55:00,
2013-01-02 07:00:00,38.5,30.3,30.22,NNE,18,7.0,7.0,72,0.00,,,0.00,0,Wunderground v.1.15,2013-01-02 13:00:00,
2013-01-02 07:05:00,38.5,30.3,30.22,NNE,17,8.0,8.0,72,0.00,,,0.00,0,Wunderground v.1.15,2013-01-02 13:05:00,
2013-01-02 07:10:00,38.4,30.2,30.22,NNE,26,6.0,7.0,72,0.00,,,0.00,0,Wunderground v.1.15,2013-01-02 13:10:00,
2013-01-02 07:15:00,38.5,30.3,30.22,NNE,19,5.0,7.0,72,0.00,,,0.00,0,Wunderground v.1.15,2013-01-02 13:15:00,
2013-01-02 07:20:00,38.4,30.5,30.22,NNE,24,5.0,5.0,73,0.00,,,0.00,0,Wunderground v.1.15,2013-01-02 13:20:00,
2013-01-02 07:25:00,38.4,30.5,30.22,NNE,22,5.0,6.0,73,0.00,,,0.00,0,Wunderground v.1.15,2013-01-02 13:25:00,
2013-01-02 07:30:00,38.4,30.5,30.23,NNE,24,6.0,6.0,73,0.00,,,0.00,0,Wunderground v.1.15,2013-01-02 13:30:00,
2013-01-02 07:35:00,38.4,30.2,30.23,NNE,15,6.0,7.0,72,0.00,,,0.00,5,Wunderground v.1.15,2013-01-02 13:35:00,
2013-01-02 07:45:00,38.3,30.4,30.22,NNE,24,6.0,6.0,73,0.00,,,0.00,9,Wunderground v.1.15,2013-01-02 13:45:00,
2013-01-02 07:50:00,38.3,30.1,30.22,North,5,6.0,6.0,72,0.00,,,0.00,14,Wunderground v.1.15,2013-01-02 13:50:00,
2013-01-02 07:55:00,38.3,30.4,30.22,NE,35,6.0,10.0,73,0.00,,,0.00,19,Wunderground v.1.15,2013-01-02 13:55:00,
2013-01-02 08:00:00,38.4,30.2,30.23,NNE,22,6.0,7.0,72,0.00,,,0.00,18,Wunderground v.1.15,2013-01-02 14:00:00,
2013-01-02 08:05:00,38.4,30.2,30.23,NE,42,6.0,10.0,72,0.00,,,0.00,18,Wunderground v.1.15,2013-01-02 14:05:00,
2013-01-02 08:15:00,38.4,30.5,30.24,NNE,29,7.0,7.0,73,0.00,,,0.00,33,Wunderground v.1.15,2013-01-02 14:15:00,
2013-01-02 08:20:00,38.5,30.6,30.24,NNE,15,6.0,6.0,73,0.00,,,0.00,39,Wunderground v.1.15,2013-01-02 14:20:00,
2013-01-02 08:25:00,38.5,30.6,30.24,NNE,14,5.0,12.0,73,0.00,,,0.00,47,Wunderground v.1.15,2013-01-02 14:25:00,
2013-01-02 08:30:00,38.6,30.7,30.24,North,9,6.0,6.0,73,0.00,,,0.00,54,Wunderground v.1.15,2013-01-02 14:30:00,
2013-01-02 08:35:00,38.6,30.7,30.24,NNE,30,6.0,6.0,73,0.00,,,0.00,62,Wunderground v.1.15,2013-01-02 14:35:00,
2013-01-02 08:40:00,38.7,30.8,30.24,NNE,15,6.0,6.0,73,0.00,,,0.00,69,Wunderground v.1.15,2013-01-02 14:40:00,
2013-01-02 08:45:00,38.8,30.9,30.25,NNE,17,6.0,6.0,73,0.00,,,0.00,70,Wunderground v.1.15,2013-01-02 14:45:00,
2013-01-02 08:50:00,38.8,30.9,30.25,North,360,5.0,5.0,73,0.00,,,0.00,74,Wunderground v.1.15,2013-01-02 14:50:00,
2013-01-02 08:55:00,38.9,31.0,30.25,NNW,340,4.0,5.0,73,0.00,,,0.00,83,Wunderground v.1.15,2013-01-02 14:55:00,
2013-01-02 09:00:00,39.0,31.1,30.25,NNE,18,4.0,4.0,73,0.00,,,0.00,84,Wunderground v.1.15,2013-01-02 15:00:00,
2013-01-02 09:05:00,39.1,30.8,30.25,North,11,5.0,5.0,72,0.00,,,0.00,95,Wunderground v.1.15,2013-01-02 15:05:00,
2013-01-02 09:10:00,39.2,32.3,30.25,NE,34,6.0,8.0,76,0.00,,,0.00,109,Wunderground v.1.15,2013-01-02 15:10:00,
2013-01-02 09:15:00,39.3,31.0,30.25,NNE,16,6.0,8.0,72,0.00,,,0.00,120,Wunderground v.1.15,2013-01-02 15:15:00,
2013-01-02 09:20:00,39.5,30.9,30.25,NNE,26,7.0,7.0,71,0.00,,,0.00,132,Wunderground v.1.15,2013-01-02 15:20:00,
2013-01-02 09:25:00,39.8,31.2,30.25,NNE,17,6.0,7.0,71,0.00,,,0.00,139,Wunderground v.1.15,2013-01-02 15:25:00,
2013-01-02 09:30:00,39.9,31.3,30.26,NNE,31,6.0,6.0,71,0.00,,,0.00,134,Wunderground v.1.15,2013-01-02 15:30:00,
2013-01-02 09:35:00,40.1,31.1,30.26,NNE,30,5.0,6.0,70,0.00,,,0.00,123,Wunderground v.1.15,2013-01-02 15:35:00,
2013-01-02 09:45:00,40.3,30.9,30.27,NNE,29,4.0,4.0,69,0.00,,,0.00,130,Wunderground v.1.15,2013-01-02 15:45:00,
2013-01-02 09:55:00,40.7,31.3,30.27,NE,38,4.0,5.0,69,0.00,,,0.00,132,Wunderground v.1.15,2013-01-02 15:55:00,
2013-01-02 10:00:00,40.7,31.3,30.27,NE,48,5.0,5.0,69,0.00,,,0.00,137,Wunderground v.1.15,2013-01-02 16:00:00,
2013-01-02 10:05:00,40.6,31.2,30.27,NE,42,5.0,7.0,69,0.00,,,0.00,123,Wunderground v.1.15,2013-01-02 16:05:00,
2013-01-02 10:10:00,40.6,30.9,30.27,NE,46,5.0,5.0,68,0.00,,,0.00,132,Wunderground v.1.15,2013-01-02 16:10:00,
2013-01-02 10:15:00,40.7,31.3,30.27,NE,43,5.0,5.0,69,0.00,,,0.00,148,Wunderground v.1.15,2013-01-02 16:15:00,
2013-01-02 10:20:00,41.0,31.6,30.27,NNE,19,4.0,4.0,69,0.00,,,0.00,148,Wunderground v.1.15,2013-01-02 16:20:00,
2013-01-02 10:25:00,40.9,31.1,30.27,NNE,30,4.0,7.0,68,0.00,,,0.00,130,Wunderground v.1.15,2013-01-02 16:25:00,
2013-01-02 10:30:00,40.8,31.1,30.27,NNE,15,5.0,10.0,68,0.00,,,0.00,128,Wunderground v.1.15,2013-01-02 16:30:00,
2013-01-02 10:35:00,41.0,31.2,30.27,NNE,19,4.0,10.0,68,0.00,,,0.00,100,Wunderground v.1.15,2013-01-02 16:35:00,
2013-01-02 10:40:00,41.0,30.9,30.27,NNE,25,4.0,4.0,67,0.00,,,0.00,83,Wunderground v.1.15,2013-01-02 16:40:00,
2013-01-02 10:45:00,41.1,31.0,30.26,NNE,26,5.0,5.0,67,0.00,,,0.00,84,Wunderground v.1.15,2013-01-02 16:45:00,
2013-01-02 10:50:00,41.0,30.9,30.26,NE,40,5.0,5.0,67,0.00,,,0.00,98,Wunderground v.1.15,2013-01-02 16:50:00,
2013-01-02 10:55:00,41.1,31.0,30.26,NE,48,5.0,6.0,67,0.00,,,0.00,127,Wunderground v.1.15,2013-01-02 16:55:00,
2013-01-02 11:00:00,41.3,31.2,30.26,NE,42,5.0,6.0,67,0.00,,,0.00,158,Wunderground v.1.15,2013-01-02 17:00:00,
2013-01-02 11:05:00,41.4,30.9,30.26,NE,38,5.0,6.0,66,0.00,,,0.00,135,Wunderground v.1.15,2013-01-02 17:05:00,
2013-01-02 11:10:00,41.4,31.3,30.26,NE,38,6.0,6.0,67,0.00,,,0.00,139,Wunderground v.1.15,2013-01-02 17:10:00,
2013-01-02 11:15:00,41.6,31.4,30.26,NE,38,5.0,6.0,67,0.00,,,0.00,151,Wunderground v.1.15,2013-01-02 17:15:00,
2013-01-02 11:20:00,41.7,31.2,30.26,NNW,335,5.0,10.0,66,0.00,,,0.00,174,Wunderground v.1.15,2013-01-02 17:20:00,
2013-01-02 11:25:00,42.1,31.2,30.26,NNE,28,5.0,10.0,65,0.00,,,0.00,179,Wunderground v.1.15,2013-01-02 17:25:00,
2013-01-02 11:30:00,42.1,31.2,30.25,NNE,30,5.0,5.0,65,0.00,,,0.00,155,Wunderground v.1.15,2013-01-02 17:30:00,
2013-01-02 11:35:00,42.1,30.8,30.25,North,360,5.0,5.0,64,0.00,,,0.00,132,Wunderground v.1.15,2013-01-02 17:35:00,
2013-01-02 11:40:00,42.0,31.1,30.25,North,11,5.0,5.0,65,0.00,,,0.00,104,Wunderground v.1.15,2013-01-02 17:40:00,
2013-01-02 11:45:00,42.0,31.1,30.26,North,5,5.0,6.0,65,0.00,,,0.00,95,Wunderground v.1.15,2013-01-02 17:45:00,
2013-01-02 11:50:00,42.1,31.6,30.26,North,360,4.0,5.0,66,0.00,,,0.00,123,Wunderground v.1.15,2013-01-02 17:50:00,
2013-01-02 11:55:00,42.2,31.6,30.26,North,360,5.0,7.0,66,0.00,,,0.00,139,Wunderground v.1.15,2013-01-02 17:55:00,
2013-01-02 12:00:00,42.2,31.3,30.25,North,10,5.0,5.0,65,0.00,,,0.00,127,Wunderground v.1.15,2013-01-02 18:00:00,
2013-01-02 12:05:00,42.4,31.1,30.25,North,360,4.0,5.0,64,0.00,,,0.00,128,Wunderground v.1.15,2013-01-02 18:05:00,
2013-01-02 12:15:00,42.5,31.6,30.24,NNE,28,4.0,4.0,65,0.00,,,0.00,141,Wunderground v.1.15,2013-01-02 18:15:00,
2013-01-02 12:20:00,42.8,31.5,30.24,NNE,29,2.0,2.0,64,0.00,,,0.00,128,Wunderground v.1.15,2013-01-02 18:20:00,
2013-01-02 12:30:00,42.6,30.9,30.22,NE,38,5.0,5.0,63,0.00,,,0.00,135,Wunderground v.1.15,2013-01-02 18:30:00,
2013-01-02 12:35:00,42.6,31.3,30.22,NE,38,4.0,5.0,64,0.00,,,0.00,114,Wunderground v.1.15,2013-01-02 18:35:00,
2013-01-02 12:40:00,42.8,31.5,30.22,NE,35,3.0,3.0,64,0.00,,,0.00,132,Wunderground v.1.15,2013-01-02 18:40:00,
2013-01-02 12:50:00,42.9,31.2,30.22,North,9,4.0,4.0,63,0.00,,,0.00,120,Wunderground v.1.15,2013-01-02 18:50:00,
2013-01-02 12:55:00,42.9,31.6,30.22,NNW,335,3.0,6.0,64,0.00,,,0.00,109,Wunderground v.1.15,2013-01-02 18:55:00,
2013-01-02 13:00:00,42.9,30.8,30.22,North,10,4.0,5.0,62,0.00,,,0.00,113,Wunderground v.1.15,2013-01-02 19:00:00,
2013-01-02 13:05:00,42.9,30.8,30.22,NNW,334,5.0,5.0,62,0.00,,,0.00,128,Wunderground v.1.15,2013-01-02 19:05:00,
2013-01-02 13:10:00,42.9,31.2,30.22,NNW,338,5.0,6.0,63,0.00,,,0.00,120,Wunderground v.1.15,2013-01-02 19:10:00,
2013-01-02 13:15:00,43.0,30.9,30.21,North,360,4.0,6.0,62,0.00,,,0.00,107,Wunderground v.1.15,2013-01-02 19:15:00,
2013-01-02 13:20:00,42.9,30.8,30.21,NNE,21,5.0,6.0,62,0.00,,,0.00,113,Wunderground v.1.15,2013-01-02 19:20:00,
2013-01-02 13:25:00,42.9,30.8,30.21,NNE,25,5.0,6.0,62,0.00,,,0.00,111,Wunderground v.1.15,2013-01-02 19:25:00,
2013-01-02 13:30:00,42.9,31.2,30.21,NNE,26,4.0,4.0,63,0.00,,,0.00,105,Wunderground v.1.15,2013-01-02 19:30:00,
2013-01-02 13:40:00,43.1,31.4,30.21,NNE,26,1.0,5.0,63,0.00,,,0.00,130,Wunderground v.1.15,2013-01-02 19:40:00,
2013-01-02 13:45:00,42.9,30.8,30.20,NNE,27,3.0,5.0,62,0.00,,,0.00,116,Wunderground v.1.15,2013-01-02 19:45:00,
2013-01-02 13:55:00,43.2,31.4,30.20,NNE,20,2.0,3.0,63,0.00,,,0.00,107,Wunderground v.1.15,2013-01-02 19:55:00,
2013-01-02 14:00:00,43.4,31.6,30.19,NNE,20,1.0,3.0,63,0.00,,,0.00,107,Wunderground v.1.15,2013-01-02 20:00:00,
2013-01-02 14:05:00,43.5,31.7,30.19,NNE,18,2.0,4.0,63,0.00,,,0.00,109,Wunderground v.1.15,2013-01-02 20:05:00,
2013-01-02 14:10:00,43.6,31.8,30.19,NNE,23,3.0,4.0,63,0.00,,,0.00,109,Wunderground v.1.15,2013-01-02 20:10:00,
2013-01-02 14:15:00,43.6,31.4,30.19,North,360,4.0,4.0,62,0.00,,,0.00,109,Wunderground v.1.15,2013-01-02 20:15:00,
2013-01-02 14:20:00,43.7,31.5,30.19,North,11,3.0,7.0,62,0.00,,,0.00,123,Wunderground v.1.15,2013-01-02 20:20:00,
2013-01-02 14:25:00,43.8,31.6,30.19,NNE,21,3.0,7.0,62,0.00,,,0.00,148,Wunderground v.1.15,2013-01-02 20:25:00,
2013-01-02 14:30:00,44.1,31.5,30.18,NNW,338,3.0,5.0,61,0.00,,,0.00,142,Wunderground v.1.15,2013-01-02 20:30:00,
2013-01-02 14:40:00,44.2,31.6,30.18,North,11,3.0,3.0,61,0.00,,,0.00,95,Wunderground v.1.15,2013-01-02 20:40:00,
2013-01-02 14:45:00,44.3,32.1,30.17,North,360,4.0,4.0,62,0.00,,,0.00,104,Wunderground v.1.15,2013-01-02 20:45:00,
2013-01-02 14:50:00,44.2,32.0,30.17,North,360,3.0,5.0,62,0.00,,,0.00,84,Wunderground v.1.15,2013-01-02 20:50:00,
2013-01-02 14:55:00,44.3,32.1,30.17,North,360,3.0,5.0,62,0.00,,,0.00,70,Wunderground v.1.15,2013-01-02 20:55:00,
2013-01-02 15:05:00,44.4,32.2,30.19,North,360,2.0,3.0,62,0.00,,,0.00,54,Wunderground v.1.15,2013-01-02 21:05:00,
2013-01-02 15:10:00,44.5,32.3,30.19,North,5,0.0,0.0,62,0.00,,,0.00,58,Wunderground v.1.15,2013-01-02 21:10:00,
2013-01-02 15:15:00,44.5,31.9,30.18,North,11,1.0,5.0,61,0.00,,,0.00,63,Wunderground v.1.15,2013-01-02 21:15:00,
2013-01-02 15:20:00,44.5,31.9,30.18,North,11,2.0,2.0,61,0.00,,,0.00,70,Wunderground v.1.15,2013-01-02 21:20:00,
2013-01-02 15:25:00,44.5,32.3,30.18,North,10,3.0,3.0,62,0.00,,,0.00,90,Wunderground v.1.15,2013-01-02 21:25:00,
2013-01-02 15:30:00,44.6,32.4,30.19,North,10,3.0,3.0,62,0.00,,,0.00,113,Wunderground v.1.15,2013-01-02 21:30:00,
2013-01-02 15:35:00,44.7,32.5,30.19,North,10,2.0,3.0,62,0.00,,,0.00,114,Wunderground v.1.15,2013-01-02 21:35:00,
2013-01-02 15:40:00,44.9,32.3,30.19,NNE,14,2.0,3.0,61,0.00,,,0.00,98,Wunderground v.1.15,2013-01-02 21:40:00,
2013-01-02 15:45:00,45.0,31.9,30.18,NNE,14,2.0,7.0,60,0.00,,,0.00,88,Wunderground v.1.15,2013-01-02 21:45:00,
2013-01-02 15:50:00,45.0,31.5,30.18,NNE,15,3.0,4.0,59,0.00,,,0.00,81,Wunderground v.1.15,2013-01-02 21:50:00,
2013-01-02 15:55:00,45.0,31.5,30.18,NNW,339,4.0,4.0,59,0.00,,,0.00,72,Wunderground v.1.15,2013-01-02 21:55:00,
2013-01-02 16:00:00,45.1,31.6,30.19,NNW,339,3.0,5.0,59,0.00,,,0.00,84,Wunderground v.1.15,2013-01-02 22:00:00,
2013-01-02 16:05:00,45.1,31.6,30.19,North,360,2.0,5.0,59,0.00,,,0.00,83,Wunderground v.1.15,2013-01-02 22:05:00,
2013-01-02 16:10:00,45.1,31.6,30.19,North,5,3.0,5.0,59,0.00,,,0.00,76,Wunderground v.1.15,2013-01-02 22:10:00,
2013-01-02 16:20:00,45.2,31.3,30.19,NNE,21,3.0,4.0,58,0.00,,,0.00,56,Wunderground v.1.15,2013-01-02 22:20:00,
2013-01-02 16:25:00,45.3,31.8,30.19,NNE,21,3.0,4.0,59,0.00,,,0.00,46,Wunderground v.1.15,2013-01-02 22:25:00,
2013-01-02 16:30:00,45.3,31.8,30.19,NNE,24,3.0,4.0,59,0.00,,,0.00,44,Wunderground v.1.15,2013-01-02 22:30:00,
2013-01-02 16:35:00,45.2,30.9,30.19,NNE,28,4.0,4.0,57,0.00,,,0.00,42,Wunderground v.1.15,2013-01-02 22:35:00,
2013-01-02 16:40:00,45.2,31.3,30.19,NNE,29,5.0,5.0,58,0.00,,,0.00,35,Wunderground v.1.15,2013-01-02 22:40:00,
2013-01-02 16:45:00,45.2,31.3,30.19,NNE,15,4.0,5.0,58,0.00,,,0.00,28,Wunderground v.1.15,2013-01-02 22:45:00,
2013-01-02 16:50:00,45.1,31.2,30.19,NNE,25,4.0,4.0,58,0.00,,,0.00,30,Wunderground v.1.15,2013-01-02 22:50:00,
2013-01-02 16:55:00,45.1,31.2,30.19,NNE,29,5.0,5.0,58,0.00,,,0.00,30,Wunderground v.1.15,2013-01-02 22:55:00,
2013-01-02 17:00:00,45.0,31.5,30.19,NNE,29,4.0,4.0,59,0.00,,,0.00,25,Wunderground v.1.15,2013-01-02 23:00:00,
2013-01-02 17:10:00,45.0,31.5,30.19,NNE,26,2.0,6.0,59,0.00,,,0.00,21,Wunderground v.1.15,2013-01-02 23:10:00,
2013-01-02 17:15:00,45.0,31.9,30.19,NNE,17,3.0,6.0,60,0.00,,,0.00,16,Wunderground v.1.15,2013-01-02 23:15:00,
2013-01-02 17:20:00,44.9,31.8,30.19,NNE,32,4.0,5.0,60,0.00,,,0.00,18,Wunderground v.1.15,2013-01-02 23:20:00,
2013-01-02 17:25:00,44.9,31.8,30.19,NNE,32,4.0,5.0,60,0.00,,,0.00,12,Wunderground v.1.15,2013-01-02 23:25:00,
2013-01-02 17:35:00,44.8,31.8,30.19,NNE,28,3.0,5.0,60,0.00,,,0.00,0,Wunderground v.1.15,2013-01-02 23:35:00,
2013-01-02 17:45:00,44.6,31.6,30.19,NE,34,4.0,4.0,60,0.00,,,0.00,0,Wunderground v.1.15,2013-01-02 23:45:00,
2013-01-02 17:50:00,44.5,31.5,30.19,NE,35,4.0,4.0,60,0.00,,,0.00,0,Wunderground v.1.15,2013-01-02 23:50:00,
2013-01-02 17:55:00,44.5,31.5,30.19,NNE,22,4.0,6.0,60,0.00,,,0.00,0,Wunderground v.1.15,2013-01-02 23:55:00,
2013-01-02 18:00:00,44.4,31.4,30.21,NNE,23,3.0,3.0,60,0.00,,,0.00,0,Wunderground v.1.15,2013-01-03 00:00:00,
2013-01-02 18:05:00,44.4,31.8,30.21,NNE,12,2.0,4.0,61,0.00,,,0.00,0,Wunderground v.1.15,2013-01-03 00:05:00,
2013-01-02 18:10:00,44.4,31.8,30.21,NNE,15,1.0,6.0,61,0.00,,,0.00,0,Wunderground v.1.15,2013-01-03 00:10:00,
2013-01-02 18:15:00,44.3,31.7,30.21,NNE,19,2.0,6.0,61,0.00,,,0.00,0,Wunderground v.1.15,2013-01-03 00:15:00,
2013-01-02 18:20:00,44.3,32.1,30.21,NNE,19,2.0,3.0,62,0.00,,,0.00,0,Wunderground v.1.15,2013-01-03 00:20:00,
2013-01-02 18:30:00,44.2,32.4,30.22,NNE,19,3.0,3.0,63,0.00,,,0.00,0,Wunderground v.1.15,2013-01-03 00:30:00,
2013-01-02 18:40:00,44.2,32.4,30.22,NNE,19,1.0,1.0,63,0.00,,,0.00,0,Wunderground v.1.15,2013-01-03 00:40:00,
2013-01-02 18:45:00,44.2,32.4,30.22,NNE,19,1.0,2.0,63,0.00,,,0.00,0,Wunderground v.1.15,2013-01-03 00:45:00,
2013-01-02 18:50:00,44.2,32.4,30.22,NNE,19,1.0,1.0,63,0.00,,,0.00,0,Wunderground v.1.15,2013-01-03 00:50:00,
2013-01-02 18:55:00,44.1,32.3,30.22,NNE,19,1.0,1.0,63,0.00,,,0.00,0,Wunderground v.1.15,2013-01-03 00:55:00,
2013-01-02 19:00:00,44.1,32.3,30.22,NNE,19,1.0,1.0,63,0.00,,,0.00,0,Wunderground v.1.15,2013-01-03 01:00:00,
2013-01-02 19:05:00,44.0,32.2,30.22,NNE,19,2.0,2.0,63,0.00,,,0.00,0,Wunderground v.1.15,2013-01-03 01:05:00,
2013-01-02 19:10:00,44.0,32.6,30.22,NNE,21,2.0,3.0,64,0.00,,,0.00,0,Wunderground v.1.15,2013-01-03 01:10:00,
2013-01-02 19:20:00,43.9,32.5,30.22,NNE,20,3.0,3.0,64,0.00,,,0.00,0,Wunderground v.1.15,2013-01-03 01:20:00,
2013-01-02 19:25:00,43.9,32.5,30.22,NNE,20,1.0,3.0,64,0.00,,,0.00,0,Wunderground v.1.15,2013-01-03 01:25:00,
2013-01-02 19:30:00,43.9,32.5,30.22,NNE,20,1.0,3.0,64,0.00,,,0.00,0,Wunderground v.1.15,2013-01-03 01:30:00,
2013-01-02 19:40:00,43.7,32.3,30.22,NNE,21,2.0,2.0,64,0.00,,,0.00,0,Wunderground v.1.15,2013-01-03 01:40:00,
2013-01-02 19:45:00,43.7,32.3,30.23,NNE,21,3.0,3.0,64,0.00,,,0.00,0,Wunderground v.1.15,2013-01-03 01:45:00,
2013-01-02 19:50:00,43.6,32.2,30.23,NNE,21,2.0,2.0,64,0.00,,,0.00,0,Wunderground v.1.15,2013-01-03 01:50:00,
2013-01-02 19:55:00,43.5,32.5,30.23,NNE,21,1.0,2.0,65,0.00,,,0.00,0,Wunderground v.1.15,2013-01-03 01:55:00,
2013-01-02 20:00:00,43.4,32.4,30.23,NNE,21,1.0,3.0,65,0.00,,,0.00,0,Wunderground v.1.15,2013-01-03 02:00:00,
2013-01-02 20:05:00,43.3,32.3,30.23,NNE,21,0.0,3.0,65,0.00,,,0.00,0,Wunderground v.1.15,2013-01-03 02:05:00,
2013-01-02 20:10:00,43.3,32.3,30.23,NNE,21,1.0,1.0,65,0.00,,,0.00,0,Wunderground v.1.15,2013-01-03 02:10:00,
2013-01-02 20:15:00,43.2,32.6,30.23,NNE,21,1.0,1.0,66,0.00,,,0.00,0,Wunderground v.1.15,2013-01-03 02:15:00,
2013-01-02 20:20:00,43.1,32.1,30.23,NNE,21,1.0,4.0,65,0.00,,,0.00,0,Wunderground v.1.15,2013-01-03 02:20:00,
2013-01-02 20:30:00,42.9,32.3,30.24,NNE,21,2.0,2.0,66,0.00,,,0.00,0,Wunderground v.1.15,2013-01-03 02:30:00,
2013-01-02 20:35:00,42.9,32.3,30.24,NNE,21,1.0,2.0,66,0.00,,,0.00,0,Wunderground v.1.15,2013-01-03 02:35:00,
2013-01-02 20:40:00,42.9,32.3,30.24,NNE,21,1.0,1.0,66,0.00,,,0.00,0,Wunderground v.1.15,2013-01-03 02:40:00,
2013-01-02 20:50:00,42.9,32.3,30.24,NNE,21,1.0,1.0,66,0.00,,,0.00,0,Wunderground v.1.15,2013-01-03 02:50:00,
2013-01-02 20:55:00,42.9,32.3,30.24,NNE,21,1.0,1.0,66,0.00,,,0.00,0,Wunderground v.1.15,2013-01-03 02:55:00,
2013-01-02 21:00:00,42.8,32.2,30.24,NNE,21,1.0,1.0,66,0.00,,,0.00,0,Wunderground v.1.15,2013-01-03 03:00:00,
2013-01-02 21:05:00,42.8,32.2,30.24,NNE,21,1.0,1.0,66,0.00,,,0.00,0,Wunderground v.1.15,2013-01-03 03:05:00,
2013-01-02 21:10:00,42.8,32.2,30.24,NNE,21,0.0,0.0,66,0.00,,,0.00,0,Wunderground v.1.15,2013-01-03 03:10:00,
2013-01-02 21:15:00,42.8,32.6,30.25,NNE,21,0.0,0.0,67,0.00,,,0.00,0,Wunderground v.1.15,2013-01-03 03:15:00,
2013-01-02 21:20:00,42.7,32.5,30.25,NNE,21,1.0,3.0,67,0.00,,,0.00,0,Wunderground v.1.15,2013-01-03 03:20:00,
2013-01-02 21:25:00,42.7,32.5,30.25,NNE,21,2.0,3.0,67,0.00,,,0.00,0,Wunderground v.1.15,2013-01-03 03:25:00,
2013-01-02 21:50:00,42.7,32.5,30.25,NNE,21,3.0,6.0,67,0.00,,,0.00,0,Wunderground v.1.15,2013-01-03 03:50:00,
2013-01-02 21:55:00,42.7,32.5,30.25,NNE,21,2.0,6.0,67,0.00,,,0.00,0,Wunderground v.1.15,2013-01-03 03:55:00,
2013-01-02 22:00:00,42.7,32.5,30.25,NNE,21,1.0,2.0,67,0.00,,,0.00,0,Wunderground v.1.15,2013-01-03 04:00:00,
2013-01-02 22:05:00,42.7,32.1,30.25,NNE,22,3.0,9.0,66,0.00,,,0.00,0,Wunderground v.1.15,2013-01-03 04:05:00,
2013-01-02 22:10:00,42.7,32.1,30.25,NNE,23,4.0,4.0,66,0.00,,,0.00,0,Wunderground v.1.15,2013-01-03 04:10:00,
2013-01-02 22:20:00,42.7,32.5,30.26,NNE,23,3.0,6.0,67,0.00,,,0.00,0,Wunderground v.1.15,2013-01-03 04:20:00,
2013-01-02 22:25:00,42.6,32.4,30.26,NNE,23,3.0,6.0,67,0.00,,,0.00,0,Wunderground v.1.15,2013-01-03 04:25:00,
2013-01-02 22:30:00,42.6,32.4,30.26,NNE,23,3.0,3.0,67,0.00,,,0.00,0,Wunderground v.1.15,2013-01-03 04:30:00,
2013-01-02 22:35:00,42.5,32.3,30.26,NNE,23,3.0,3.0,67,0.00,,,0.00,0,Wunderground v.1.15,2013-01-03 04:35:00,
2013-01-02 22:40:00,42.4,32.6,30.26,NNE,23,3.0,3.0,68,0.00,,,0.00,0,Wunderground v.1.15,2013-01-03 04:40:00,
2013-01-02 22:45:00,42.4,32.6,30.26,NNE,23,3.0,4.0,68,0.00,,,0.00,0,Wunderground v.1.15,2013-01-03 04:45:00,
2013-01-02 22:50:00,42.4,32.6,30.26,NNE,22,2.0,2.0,68,0.00,,,0.00,0,Wunderground v.1.15,2013-01-03 04:50:00,
2013-01-02 22:55:00,42.3,32.8,30.26,NNE,22,1.0,2.0,69,0.00,,,0.00,0,Wunderground v.1.15,2013-01-03 04:55:00,
2013-01-02 23:00:00,42.2,33.1,30.26,NNE,23,0.0,0.0,70,0.00,,,0.00,0,Wunderground v.1.15,2013-01-03 05:00:00,
2013-01-02 23:05:00,42.1,33.4,30.26,NNE,23,0.0,0.0,71,0.00,,,0.00,0,Wunderground v.1.15,2013-01-03 05:05:00,
2013-01-02 23:15:00,41.9,33.5,30.25,NNE,22,0.0,1.0,72,0.00,,,0.00,0,Wunderground v.1.15,2013-01-03 05:15:00,
2013-01-02 23:20:00,41.8,33.4,30.25,NNE,24,1.0,1.0,72,0.00,,,0.00,0,Wunderground v.1.15,2013-01-03 05:20:00,
2013-01-02 23:25:00,41.6,33.2,30.25,NNE,23,1.0,6.0,72,0.00,,,0.00,0,Wunderground v.1.15,2013-01-03 05:25:00,
2013-01-02 23:30:00,41.5,33.1,30.25,NNE,23,2.0,4.0,72,0.00,,,0.00,0,Wunderground v.1.15,2013-01-03 05:30:00,
2013-01-02 23:40:00,41.4,33.4,30.25,NNE,22,2.0,2.0,73,0.00,,,0.00,0,Wunderground v.1.15,2013-01-03 05:40:00,
2013-01-02 23:45:00,41.4,33.4,30.25,NNE,24,1.0,2.0,73,0.00,,,0.00,0,Wunderground v.1.15,2013-01-03 05:45:00,
2013-01-02 23:50:00,41.3,33.3,30.25,NNE,22,1.0,4.0,73,0.00,,,0.00,0,Wunderground v.1.15,2013-01-03 05:50:00,
2013-01-02 23:55:00,41.2,33.2,30.25,NNE,24,2.0,4.0,73,0.00,,,0.00,0,Wunderground v.1.15,2013-01-03 05:55:00,